Time;durP1;ratioP1;P1;durP2;ratioP2;P2;SDS_P1;SDS_P2;PMS_P1;PMS_P2;Temp;Humidity;BMP_temperature;BMP_pressure;BME280_temperature;BME280_humidity;BME280_pressure;Samples;Min_cycle;Max_cycle;Signal;HPM_P1;HPM_P2
2021/08/18 00:01:47;;;;;;;14.10;9.03;;;;;;;23.96;67.65;94571.75;5075015;28;20483;-85
2021/08/18 00:04:14;;;;;;;9.60;7.53;;;;;;;23.97;67.66;94571.53;5075624;28;20788;-84
2021/08/18 00:06:41;;;;;;;10.90;7.80;;;;;;;23.99;67.99;94574.00;5074929;28;20523;-85
2021/08/18 00:09:08;;;;;;;10.93;8.87;;;;;;;24.00;68.17;94565.75;5075158;28;20435;-85
2021/08/18 00:11:35;;;;;;;8.70;7.87;;;;;;;23.91;68.84;94564.38;5075201;28;20521;-84
2021/08/18 00:14:04;;;;;;;11.37;8.40;;;;;;;23.87;69.28;94565.88;5074813;28;20550;-84
2021/08/18 00:16:31;;;;;;;15.20;9.50;;;;;;;23.68;69.40;94550.78;5039979;28;20534;-84
2021/08/18 00:18:58;;;;;;;9.60;8.70;;;;;;;23.35;70.10;94551.81;5075005;28;20427;-85
2021/08/18 00:21:26;;;;;;;14.73;7.93;;;;;;;23.13;70.57;94556.72;5074655;28;20438;-84
2021/08/18 00:23:53;;;;;;;13.73;8.53;;;;;;;22.89;71.18;94541.41;5074597;28;20605;-85
2021/08/18 00:26:26;;;;;;;24.50;7.10;;;;;;;22.80;71.84;94548.81;5075190;28;20475;-85
2021/08/18 00:28:53;;;;;;;11.00;7.33;;;;;;;22.60;72.27;94550.78;5074911;28;20473;-85
2021/08/18 00:31:22;;;;;;;12.43;6.90;;;;;;;22.55;72.11;94537.19;5075061;28;20435;-85
2021/08/18 00:33:49;;;;;;;9.40;7.47;;;;;;;22.52;72.09;94525.09;5074974;28;20469;-85
2021/08/18 00:36:16;;;;;;;14.30;7.10;;;;;;;22.46;72.16;94519.75;5056376;28;20537;-85
2021/08/18 00:38:43;;;;;;;10.80;6.70;;;;;;;22.45;72.57;94512.78;5074875;28;20431;-85
2021/08/18 00:41:10;;;;;;;10.63;7.23;;;;;;;22.42;71.94;94519.38;5074196;28;20910;-85
2021/08/18 00:50:24;;;;;;;8.30;7.50;;;;;;;22.32;73.64;94516.34;5073423;28;20475;-85
2021/08/18 00:52:51;;;;;;;12.07;7.47;;;;;;;;;;5074048;28;20441;-85
2021/08/18 00:55:21;;;;;;;8.77;7.87;;;;;;;22.41;73.55;94522.25;5074802;28;20912;-85
2021/08/18 00:57:48;;;;;;;12.80;8.23;;;;;;;22.45;73.21;94528.81;5074414;28;20799;-85
2021/08/18 01:00:17;;;;;;;14.83;8.30;;;;;;;22.53;73.21;94534.75;5074882;28;20430;-85
2021/08/18 01:02:46;;;;;;;11.50;8.23;;;;;;;22.63;72.50;94539.66;5074485;28;20566;-84
2021/08/18 01:05:15;;;;;;;14.47;10.33;;;;;;;22.64;72.57;94543.97;5074788;28;20483;-85
2021/08/18 01:07:44;;;;;;;11.13;9.33;;;;;;;22.75;72.49;94550.50;5073767;28;20529;-85
2021/08/18 01:10:13;;;;;;;13.60;8.77;;;;;;;22.87;71.89;94548.84;5073744;28;20541;-85
2021/08/18 01:12:41;;;;;;;13.47;9.93;;;;;;;22.99;70.83;94557.00;5073677;28;20438;-85
2021/08/18 01:15:13;;;;;;;16.40;7.63;;;;;;;23.16;70.37;94577.72;5074391;28;20541;-84
2021/08/18 01:17:41;;;;;;;13.43;9.20;;;;;;;23.31;69.76;94566.69;5074012;28;20427;-85
2021/08/18 01:20:11;;;;;;;8.57;7.60;;;;;;;23.43;69.37;94575.69;5074104;28;20435;-85
2021/08/18 01:22:39;;;;;;;10.77;8.60;;;;;;;23.52;69.50;94573.56;5073639;28;20479;-85
2021/08/18 01:25:10;;;;;;;9.17;8.33;;;;;;;23.74;69.30;94579.41;5073892;28;20922;-85
2021/08/18 01:27:38;;;;;;;9.27;8.37;;;;;;;23.89;68.36;94579.03;5055558;28;20788;-85
2021/08/18 01:30:07;;;;;;;8.37;7.57;;;;;;;24.03;67.93;94581.41;5073424;28;20433;-85
2021/08/18 01:32:43;;;;;;;11.17;8.70;;;;;;;24.08;67.27;94576.19;5055269;28;20877;-84
2021/08/18 01:35:21;;;;;;;8.33;7.47;;;;;;;24.18;67.03;94581.03;5055730;28;20447;-84
2021/08/18 01:37:49;;;;;;;9.20;8.27;;;;;;;24.15;67.06;94578.00;5073602;28;20439;-85
2021/08/18 01:40:16;;;;;;;9.23;8.33;;;;;;;24.09;67.44;94587.75;5074725;28;20462;-85
2021/08/18 01:42:43;;;;;;;8.00;7.40;;;;;;;24.13;67.57;94585.44;5073250;28;20982;-85
2021/08/18 01:45:19;;;;;;;8.03;7.20;;;;;;;24.17;67.48;94592.00;5073691;28;20520;-85
2021/08/18 01:47:46;;;;;;;13.30;7.60;;;;;;;24.17;67.93;94589.31;5073263;28;20535;-84
2021/08/18 01:50:13;;;;;;;14.57;7.57;;;;;;;24.20;67.57;94589.69;5073698;28;20430;-85
2021/08/18 01:52:40;;;;;;;9.23;8.27;;;;;;;24.24;67.55;94587.38;5038386;28;20442;-85
2021/08/18 01:55:07;;;;;;;10.30;8.70;;;;;;;24.21;67.63;94583.28;5073682;28;20456;-85
2021/08/18 01:57:34;;;;;;;13.90;8.10;;;;;;;24.17;66.74;94586.63;5073262;28;20480;-85
2021/08/18 02:00:01;;;;;;;13.10;8.80;;;;;;;24.04;67.33;94585.72;5073435;28;20530;-84
2021/08/18 02:02:30;;;;;;;9.53;7.50;;;;;;;24.01;67.17;94591.53;5072990;28;20476;-85
2021/08/18 02:04:57;;;;;;;13.30;8.70;;;;;;;23.98;67.50;94594.63;5073357;28;20450;-84
2021/08/18 02:07:25;;;;;;;12.00;6.80;;;;;;;23.90;65.77;94592.22;5073487;28;20444;-85
2021/08/18 02:09:52;;;;;;;9.60;6.97;;;;;;;23.81;64.49;94590.06;5072992;28;20443;-85
2021/08/18 02:12:19;;;;;;;8.80;6.20;;;;;;;23.73;64.48;94591.16;5038275;28;20482;-85
2021/08/18 02:14:46;;;;;;;14.13;6.63;;;;;;;23.49;65.09;94579.34;5076516;28;20461;-84
2021/08/18 02:17:13;;;;;;;10.87;6.70;;;;;;;23.60;65.12;94600.09;5077363;28;20520;-84
2021/08/18 02:19:41;;;;;;;14.60;6.70;;;;;;;23.59;65.14;94597.63;5077627;28;20432;-85
2021/08/18 02:22:08;;;;;;;8.07;6.73;;;;;;;23.62;65.24;94594.50;5076936;28;20439;-85
2021/08/18 02:28:16;;;;;;;7.83;6.27;;;;;;;23.79;64.13;94601.00;5077108;28;20406;-85
2021/08/18 02:30:43;;;;;;;11.13;6.03;;;;;;;23.77;63.97;94589.66;5076825;28;20962;-85
2021/08/18 02:33:10;;;;;;;10.43;6.47;;;;;;;23.71;63.13;94593.22;5077039;28;20439;-85
2021/08/18 02:35:39;;;;;;;6.57;5.87;;;;;;;23.64;63.46;94595.94;5076687;28;20434;-84
2021/08/18 02:38:07;;;;;;;9.67;6.23;;;;;;;23.60;63.51;94597.41;5077506;28;20513;-84
2021/08/18 02:40:35;;;;;;;6.70;6.00;;;;;;;23.56;63.26;94600.75;5076518;28;20440;-85
2021/08/18 02:43:02;;;;;;;8.20;5.83;;;;;;;23.44;63.73;94604.09;5076745;28;20473;-85
2021/08/18 02:45:30;;;;;;;11.20;5.73;;;;;;;23.35;63.53;94597.34;5076669;28;20463;-85
2021/08/18 02:47:57;;;;;;;6.83;6.20;;;;;;;23.26;64.05;94604.00;5076825;28;20432;-84
2021/08/18 02:50:27;;;;;;;7.17;6.13;;;;;;;23.22;64.00;94597.44;5076446;28;20513;-85
2021/08/18 02:52:55;;;;;;;9.90;6.23;;;;;;;23.16;64.78;94604.47;5076573;28;20535;-84
2021/08/18 02:55:23;;;;;;;19.13;6.13;;;;;;;23.21;65.12;94609.19;5076588;28;20454;-85
2021/08/18 02:57:51;;;;;;;14.50;6.90;;;;;;;23.15;64.21;94602.00;5077036;28;20485;-85
2021/08/18 03:00:18;;;;;;;12.20;6.20;;;;;;;23.14;64.37;94608.41;5076753;28;20432;-84
2021/08/18 03:02:45;;;;;;;6.03;5.37;;;;;;;23.10;64.31;94604.50;5057696;28;20488;-85
2021/08/18 03:05:13;;;;;;;7.73;5.73;;;;;;;23.09;64.38;94601.00;5076491;28;20962;-85
2021/08/18 03:07:40;;;;;;;9.00;5.53;;;;;;;23.10;64.18;94607.16;5076603;28;20900;-84
2021/08/18 03:10:10;;;;;;;8.37;5.60;;;;;;;23.03;63.53;94614.41;5075992;28;20439;-84
2021/08/18 03:12:37;;;;;;;7.33;6.63;;;;;;;22.97;64.07;94610.75;5076555;28;20435;-84
2021/08/18 03:15:06;;;;;;;9.80;6.40;;;;;;;22.94;64.17;94599.66;5040989;28;20465;-84
2021/08/18 03:17:33;;;;;;;9.30;6.30;;;;;;;23.02;63.93;94600.22;5076487;28;20442;-84
2021/08/18 03:19:59;;;;;;;6.53;5.67;;;;;;;22.99;63.70;94613.19;5076226;28;20441;-84
2021/08/18 03:22:26;;;;;;;9.53;6.10;;;;;;;22.88;63.67;94605.84;5077330;28;21006;-84
2021/08/18 03:24:53;;;;;;;6.63;5.80;;;;;;;22.80;63.57;94607.69;5079043;28;20440;-84
2021/08/18 03:27:22;;;;;;;15.30;6.20;;;;;;;22.60;64.14;94612.31;5080203;28;20471;-84
2021/08/18 03:29:49;;;;;;;13.00;6.90;;;;;;;22.48;64.75;94608.63;5075794;28;20773;-84
2021/08/18 03:32:16;;;;;;;7.83;6.30;;;;;;;22.12;65.66;94599.25;5076168;28;20437;-84
2021/08/18 03:34:43;;;;;;;10.37;5.70;;;;;;;22.05;66.05;94610.97;5076110;28;20434;-84
2021/08/18 03:37:11;;;;;;;9.03;6.20;;;;;;;21.89;66.75;94614.84;5057324;28;20444;-84
2021/08/18 03:39:38;;;;;;;6.83;5.80;;;;;;;21.74;67.07;94612.41;5075458;28;20487;-84
2021/08/18 03:42:05;;;;;;;12.43;6.33;;;;;;;21.59;67.46;94615.25;5075524;28;20521;-84
2021/08/18 03:44:34;;;;;;;7.20;5.93;;;;;;;21.40;68.23;94626.75;5075668;28;20483;-84
2021/08/18 03:47:01;;;;;;;8.40;5.87;;;;;;;21.37;68.18;94631.66;5076144;28;20823;-84
2021/08/18 03:49:28;;;;;;;7.97;6.50;;;;;;;21.43;68.46;94637.03;5075333;28;20472;-84
2021/08/18 03:51:55;;;;;;;7.60;5.63;;;;;;;21.49;68.03;94630.88;5075785;28;20614;-84
2021/08/18 03:54:21;;;;;;;8.50;6.20;;;;;;;21.49;68.07;94638.88;5040410;28;20452;-84
2021/08/18 03:56:48;;;;;;;8.30;6.37;;;;;;;21.46;68.01;94643.81;5075351;28;20905;-83
2021/08/18 03:59:17;;;;;;;7.50;6.60;;;;;;;21.52;68.49;94635.78;5075178;28;20456;-84
2021/08/18 04:01:46;;;;;;;7.63;5.73;;;;;;;21.64;67.60;94641.34;5075788;28;20514;-84
2021/08/18 04:04:15;;;;;;;14.40;6.70;;;;;;;21.72;67.14;94646.50;5074941;28;20579;-84
2021/08/18 04:06:42;;;;;;;6.27;5.40;;;;;;;21.83;66.93;94642.41;5056789;28;20441;-84
2021/08/18 04:09:09;;;;;;;10.93;6.33;;;;;;;21.87;66.06;94649.78;5074920;28;20434;-84
2021/08/18 04:11:36;;;;;;;11.73;6.10;;;;;;;21.98;66.30;94648.38;5074902;28;20437;-84
2021/08/18 04:14:03;;;;;;;6.70;6.00;;;;;;;22.02;66.28;94644.25;5075068;28;20551;-84
2021/08/18 04:16:30;;;;;;;7.40;6.00;;;;;;;22.02;65.20;94652.28;5075053;28;20446;-84
2021/08/18 04:18:59;;;;;;;11.60;6.70;;;;;;;21.92;63.90;94646.50;5075085;28;20868;-83
2021/08/18 04:21:27;;;;;;;11.17;6.17;;;;;;;22.04;64.67;94662.78;5074559;28;20968;-84
2021/08/18 04:23:54;;;;;;;10.90;5.63;;;;;;;22.12;63.16;94662.56;5075135;28;20495;-83
2021/08/18 04:26:21;;;;;;;6.37;5.30;;;;;;;22.36;62.28;94658.44;5039698;28;20964;-84
2021/08/18 04:28:48;;;;;;;10.70;4.70;;;;;;;22.64;61.47;94660.84;5075061;28;20445;-84
2021/08/18 04:31:15;;;;;;;9.53;5.73;;;;;;;23.04;60.16;94661.56;5074479;28;21010;-84
2021/08/18 04:33:42;;;;;;;8.53;5.97;;;;;;;23.22;58.47;94663.56;5074451;28;20535;-84
2021/08/18 04:36:10;;;;;;;5.13;4.57;;;;;;;23.02;58.48;94666.31;5074136;28;20514;-84
2021/08/18 04:38:37;;;;;;;9.23;5.67;;;;;;;23.18;58.12;94653.28;5075088;28;20515;-84
2021/08/18 04:41:04;;;;;;;8.30;5.40;;;;;;;23.28;57.09;94662.69;5074645;28;20510;-84
2021/08/18 04:43:31;;;;;;;8.20;5.43;;;;;;;23.33;57.69;94669.03;5074219;28;20470;-83
2021/08/18 04:45:58;;;;;;;8.00;5.43;;;;;;;22.97;57.73;94677.66;5074229;28;20440;-84
2021/08/18 04:48:25;;;;;;;8.30;4.67;;;;;;;23.24;57.38;94675.69;5039377;28;20536;-83
2021/08/18 04:50:52;;;;;;;13.40;4.57;;;;;;;23.27;57.96;94677.94;5074133;28;20444;-83
2021/08/18 04:53:20;;;;;;;13.23;5.07;;;;;;;23.53;56.30;94686.88;5074449;28;20992;-84
2021/08/18 04:55:47;;;;;;;6.90;5.00;;;;;;;24.00;54.73;94689.06;5073984;28;20437;-83
2021/08/18 04:58:14;;;;;;;5.47;4.90;;;;;;;24.19;53.78;94687.25;5074553;28;20571;-84
2021/08/18 05:00:41;;;;;;;8.40;5.40;;;;;;;24.56;54.17;94677.47;5073891;28;20444;-83
2021/08/18 05:03:13;;;;;;;8.30;5.20;;;;;;;24.96;53.26;94690.47;5073703;28;20523;-83
2021/08/18 05:05:40;;;;;;;7.00;4.40;;;;;;;25.36;51.21;94696.22;5074048;28;20431;-81
2021/08/18 05:08:07;;;;;;;5.47;4.90;;;;;;;25.51;49.99;94703.91;5073714;28;20518;-83
2021/08/18 05:10:38;;;;;;;10.33;4.77;;;;;;;25.61;50.29;94696.91;5073792;28;20431;-82
2021/08/18 05:13:05;;;;;;;8.00;5.13;;;;;;;25.37;50.23;94703.22;5073772;28;20535;-83
2021/08/18 05:15:32;;;;;;;5.70;4.10;;;;;;;25.50;53.51;94702.25;5039019;28;20534;-82
2021/08/18 05:17:59;;;;;;;9.30;5.00;;;;;;;25.57;50.72;94694.91;5073956;28;20882;-82
2021/08/18 05:20:26;;;;;;;4.97;4.43;;;;;;;25.62;52.08;94700.44;5073702;28;20454;-84
2021/08/18 05:22:54;;;;;;;7.70;5.10;;;;;;;25.76;53.57;94693.06;5073812;28;20444;-84
2021/08/18 05:25:21;;;;;;;11.00;4.90;;;;;;;25.92;49.02;94690.50;5073461;28;20903;-83
2021/08/18 05:34:43;;;;;;;6.37;3.97;;;;;;;25.46;50.17;94693.84;5073749;28;20403;-83
2021/08/18 05:37:10;;;;;;;5.73;3.90;;;;;;;25.77;48.56;94692.00;5073876;28;20858;-83
2021/08/18 05:39:37;;;;;;;5.90;3.80;;;;;;;26.15;52.76;94691.63;5054883;28;20447;-84
2021/08/18 05:42:07;;;;;;;7.27;3.70;;;;;;;26.35;46.49;94694.03;5073222;28;20439;-83
2021/08/18 05:44:34;;;;;;;4.43;3.80;;;;;;;26.57;48.12;94688.88;5039183;28;20994;-83
2021/08/18 05:47:01;;;;;;;5.53;4.00;;;;;;;26.62;48.83;94689.03;5073518;28;20425;-83
2021/08/18 05:49:28;;;;;;;6.47;4.80;;;;;;;26.54;45.20;94690.97;5072333;28;20527;-83
2021/08/18 05:51:57;;;;;;;6.67;4.40;;;;;;;26.00;46.06;94693.91;5072664;28;20467;-83
2021/08/18 05:54:23;;;;;;;6.30;4.30;;;;;;;25.46;47.89;94693.00;5073282;28;20452;-83
2021/08/18 05:56:52;;;;;;;8.67;3.90;;;;;;;25.26;48.06;94702.13;5073108;28;20819;-83
2021/08/18 05:59:19;;;;;;;7.97;4.33;;;;;;;25.06;48.93;94698.84;5055149;28;20531;-83
2021/08/18 06:01:46;;;;;;;7.63;4.90;;;;;;;25.12;48.47;94697.94;5073406;28;20464;-83
2021/08/18 06:04:13;;;;;;;6.37;4.13;;;;;;;25.31;48.02;94701.44;5072434;28;20511;-83
2021/08/18 06:06:40;;;;;;;5.57;4.27;;;;;;;25.52;49.00;94695.59;5072415;28;20475;-84
2021/08/18 06:09:08;;;;;;;4.60;3.67;;;;;;;25.55;47.77;94691.66;5072373;28;20527;-83
2021/08/18 06:11:40;;;;;;;9.83;3.97;;;;;;;25.64;47.78;94695.63;5072318;28;20535;-84
2021/08/18 06:14:07;;;;;;;9.03;4.60;;;;;;;25.61;46.23;94686.16;5072298;28;20584;-84
2021/08/18 06:16:34;;;;;;;4.20;3.63;;;;;;;25.24;48.25;94684.59;5072298;28;20445;-83
2021/08/18 06:19:01;;;;;;;4.00;3.60;;;;;;;25.40;46.96;94688.53;5072052;28;20447;-83
2021/08/18 06:21:28;;;;;;;5.33;4.03;;;;;;;25.25;46.92;94697.00;5071897;28;20450;-83
2021/08/18 06:23:59;;;;;;;7.23;4.30;;;;;;;25.57;47.46;94685.00;5071739;28;20482;-83
2021/08/18 06:26:28;;;;;;;6.03;4.07;;;;;;;25.47;47.59;94690.09;5071947;28;20835;-84
2021/08/18 06:28:55;;;;;;;7.97;4.33;;;;;;;25.44;46.98;94687.84;5072003;28;20559;-84
2021/08/18 06:31:22;;;;;;;5.70;3.53;;;;;;;25.60;47.35;94689.09;5072317;28;20481;-84
2021/08/18 06:33:49;;;;;;;5.77;4.47;;;;;;;25.65;46.34;94678.47;5071989;28;20537;-83
2021/08/18 06:36:16;;;;;;;11.03;4.87;;;;;;;25.81;46.76;94679.72;5072258;28;20481;-84
2021/08/18 06:38:43;;;;;;;6.30;4.80;;;;;;;25.94;46.71;94679.53;5072023;28;20534;-84
2021/08/18 06:41:10;;;;;;;5.30;4.17;;;;;;;26.19;45.61;94677.47;5072618;28;20525;-84
2021/08/18 06:43:38;;;;;;;10.93;4.87;;;;;;;26.16;45.94;94683.31;5037000;28;20820;-84
2021/08/18 06:46:05;;;;;;;4.50;3.70;;;;;;;26.35;45.17;94683.28;5071879;28;20441;-84
2021/08/18 06:48:32;;;;;;;3.97;3.57;;;;;;;26.60;44.68;94677.63;5072217;28;20955;-84
2021/08/18 06:50:59;;;;;;;4.60;4.20;;;;;;;26.60;45.03;94683.03;5071795;28;20941;-84
2021/08/18 06:53:26;;;;;;;5.07;4.20;;;;;;;26.63;43.65;94683.41;5071818;28;20535;-84
2021/08/18 06:55:53;;;;;;;4.60;3.70;;;;;;;26.73;44.39;94669.34;5036379;28;20444;-84
2021/08/18 06:58:22;;;;;;;8.80;4.30;;;;;;;26.57;43.89;94683.50;5052845;28;20478;-84
2021/08/18 07:00:50;;;;;;;6.60;4.60;;;;;;;26.59;44.67;94676.00;5075146;28;20447;-84
2021/08/18 07:03:17;;;;;;;9.13;8.23;;;;;;;26.93;44.25;94672.50;5075226;28;21023;-83
2021/08/18 07:05:44;;;;;;;8.17;5.10;;;;;;;27.12;43.29;94676.69;5075340;28;20493;-84
2021/08/18 07:08:11;;;;;;;3.80;3.40;;;;;;;27.35;42.45;94680.38;5075549;28;20954;-84
2021/08/18 07:10:38;;;;;;;9.30;5.33;;;;;;;27.53;41.99;94672.13;5075282;28;20440;-84
2021/08/18 07:13:05;;;;;;;5.30;4.33;;;;;;;27.76;42.16;94666.66;5075157;28;20436;-84
2021/08/18 07:15:32;;;;;;;7.07;4.67;;;;;;;27.76;41.69;94669.38;5075362;28;20893;-85
2021/08/18 07:18:02;;;;;;;5.23;4.73;;;;;;;27.43;42.04;94672.72;5074984;28;20451;-84
2021/08/18 07:20:29;;;;;;;7.07;5.00;;;;;;;27.50;42.21;94677.19;5074976;28;20486;-84
2021/08/18 07:22:56;;;;;;;5.37;4.77;;;;;;;27.44;42.07;94671.66;5075037;28;20440;-84
2021/08/18 07:25:23;;;;;;;5.00;4.30;;;;;;;27.43;42.19;94670.03;5074850;28;20484;-84
2021/08/18 07:27:50;;;;;;;5.77;4.83;;;;;;;27.02;42.62;94670.28;5074907;28;20449;-85
2021/08/18 07:30:17;;;;;;;5.67;4.40;;;;;;;26.59;43.43;94676.00;5075054;28;20514;-84
2021/08/18 07:32:44;;;;;;;12.10;5.00;;;;;;;26.42;44.36;94668.66;5056143;28;20441;-84
2021/08/18 07:35:13;;;;;;;8.73;5.90;;;;;;;26.22;44.45;94677.00;5075018;28;20523;-84
2021/08/18 07:37:57;;;;;;;8.00;5.63;;;;;;;26.28;44.76;94664.50;5074905;28;20778;-84
2021/08/18 07:40:29;;;;;;;7.60;5.70;;;;;;;25.99;45.06;94665.38;5074896;28;20500;-85
2021/08/18 07:42:58;;;;;;;10.63;5.20;;;;;;;26.06;46.10;94668.81;5043988;28;20483;-84
2021/08/18 07:45:25;;;;;;;5.90;4.60;;;;;;;25.87;45.54;94671.56;5078652;28;20542;-84
2021/08/18 07:47:52;;;;;;;4.70;4.30;;;;;;;25.76;46.47;94672.38;5075760;28;20453;-84
2021/08/18 07:50:21;;;;;;;6.40;4.73;;;;;;;25.70;46.82;94675.94;5074785;28;20871;-84
2021/08/18 07:52:49;;;;;;;9.47;5.57;;;;;;;25.76;46.07;94677.75;5074717;28;20438;-84
2021/08/18 07:55:16;;;;;;;8.67;4.90;;;;;;;25.81;47.29;94669.81;5039926;28;20448;-84
2021/08/18 07:57:43;;;;;;;7.07;4.87;;;;;;;26.15;45.81;94667.41;5055525;28;21053;-84
2021/08/18 08:00:11;;;;;;;5.00;4.40;;;;;;;26.47;45.28;94660.69;5038934;28;20448;-85
2021/08/18 08:02:37;;;;;;;6.57;4.80;;;;;;;26.55;44.95;94667.59;5074189;28;20931;-84
2021/08/18 08:05:09;;;;;;;5.20;4.70;;;;;;;26.53;44.60;94670.50;5074008;28;20491;-84
2021/08/18 08:07:37;;;;;;;7.47;5.67;;;;;;;26.44;45.27;94666.53;5074427;28;20445;-84
2021/08/18 08:10:05;;;;;;;7.33;5.20;;;;;;;26.62;45.14;94670.19;5074068;28;21015;-85
2021/08/18 08:12:35;;;;;;;6.73;5.00;;;;;;;26.77;45.43;94662.44;5073283;28;20451;-84
2021/08/18 08:15:06;;;;;;;6.57;4.87;;;;;;;26.89;44.15;94660.56;5073829;28;20449;-85
2021/08/18 08:17:33;;;;;;;10.47;6.40;;;;;;;26.96;44.39;94661.25;5074032;28;20449;-85
2021/08/18 08:20:00;;;;;;;9.43;6.37;;;;;;;26.94;44.02;94663.34;5074020;28;20507;-84
2021/08/18 08:22:28;;;;;;;7.03;5.63;;;;;;;26.78;44.15;94664.06;5074188;28;20570;-84
2021/08/18 08:24:56;;;;;;;8.27;6.23;;;;;;;26.99;44.99;94658.09;5073705;28;20834;-84
2021/08/18 08:27:23;;;;;;;6.03;5.20;;;;;;;27.02;44.24;94654.94;5073817;28;20807;-85
2021/08/18 08:29:50;;;;;;;8.40;5.77;;;;;;;26.82;44.94;94659.84;5073891;28;20468;-84
2021/08/18 08:32:17;;;;;;;7.10;5.93;;;;;;;27.07;44.76;94665.81;5073988;28;20528;-84
2021/08/18 08:34:45;;;;;;;16.60;6.77;;;;;;;27.38;44.62;94655.66;5054939;28;20516;-85
2021/08/18 08:37:12;;;;;;;12.57;7.83;;;;;;;27.60;43.02;94659.31;5073561;28;20976;-85
2021/08/18 08:39:39;;;;;;;7.83;7.00;;;;;;;27.68;44.09;94661.66;5073673;28;20532;-84
2021/08/18 08:42:14;;;;;;;15.80;6.67;;;;;;;27.90;42.86;94651.00;5073492;28;20678;-85
2021/08/18 08:44:42;;;;;;;8.00;7.20;;;;;;;28.05;43.95;94642.34;5073523;28;20579;-85
2021/08/18 08:47:09;;;;;;;10.63;6.93;;;;;;;28.04;43.21;94640.69;5073365;28;20476;-85
2021/08/18 08:49:37;;;;;;;8.80;7.43;;;;;;;27.92;42.77;94646.16;5073692;28;20524;-85
2021/08/18 08:52:09;;;;;;;8.57;7.23;;;;;;;27.81;43.47;94646.25;5073321;28;20444;-85
2021/08/18 08:54:36;;;;;;;9.07;7.13;;;;;;;27.91;44.01;94641.00;5073310;28;20429;-85
2021/08/18 08:57:04;;;;;;;10.10;7.63;;;;;;;28.07;43.23;94634.84;5073042;28;20528;-84
2021/08/18 08:59:33;;;;;;;13.53;7.83;;;;;;;28.33;43.46;94644.16;5038239;28;20607;-85
2021/08/18 09:02:07;;;;;;;10.57;8.13;;;;;;;28.30;42.43;94634.66;5072997;28;20441;-84
2021/08/18 09:04:36;;;;;;;12.70;8.20;;;;;;;28.12;43.63;94640.31;5073321;28;20489;-85
2021/08/18 09:07:20;;;;;;;12.23;8.17;;;;;;;27.88;43.29;94636.09;5074241;28;20533;-84
2021/08/18 09:09:54;;;;;;;8.50;7.40;;;;;;;27.64;43.94;94630.84;5075993;28;20872;-84
2021/08/18 09:12:22;;;;;;;12.33;8.70;;;;;;;27.75;44.09;94632.63;5073847;28;20940;-84
2021/08/18 09:14:52;;;;;;;12.57;8.50;;;;;;;27.92;43.26;94626.47;5074053;28;20551;-85
2021/08/18 09:17:35;;;;;;;10.27;7.17;;;;;;;27.95;43.07;94625.97;5073491;28;20429;-84
2021/08/18 09:20:08;;;;;;;12.30;8.80;;;;;;;27.57;43.98;94619.34;5074098;28;20498;-85
2021/08/18 09:22:42;;;;;;;12.90;8.23;;;;;;;27.77;44.45;94622.47;5038821;28;20479;-84
2021/08/18 09:25:21;;;;;;;9.07;8.10;;;;;;;27.69;44.18;94598.56;5074057;28;20481;-84
2021/08/18 09:27:55;;;;;;;9.93;7.97;;;;;;;27.52;44.49;94613.06;5073326;28;20948;-84
2021/08/18 09:30:30;;;;;;;14.23;8.43;;;;;;;27.42;44.48;94610.97;5074061;28;20836;-84
2021/08/18 09:33:10;;;;;;;11.67;9.57;;;;;;;27.71;45.63;94601.03;5073712;28;20432;-84
2021/08/18 09:35:43;;;;;;;11.57;7.50;;;;;;;27.89;43.92;94592.72;5073568;28;20792;-84
2021/08/18 09:38:12;;;;;;;16.83;9.37;;;;;;;28.01;43.92;94600.72;5073764;28;20440;-84
2021/08/18 09:43:39;;;;;;;8.73;7.90;;;;;;;28.07;43.47;94603.28;5031784;28;20435;-84
2021/08/18 09:46:11;;;;;;;10.30;8.90;;;;;;;28.06;44.60;94595.44;5031001;28;20532;-84
2021/08/18 09:49:06;;;;;;;11.47;8.87;;;;;;;28.25;44.13;94596.00;5031970;28;20446;-84
2021/08/18 09:51:37;;;;;;;9.20;8.30;;;;;;;28.25;43.46;94604.91;5030460;28;20871;-84
2021/08/18 09:54:13;;;;;;;10.67;8.50;;;;;;;28.45;44.20;94595.50;4998535;28;20473;-85
2021/08/18 09:56:46;;;;;;;9.70;8.60;;;;;;;28.34;43.85;94598.06;5031189;28;20528;-85
2021/08/18 09:59:16;;;;;;;14.83;10.10;;;;;;;28.28;44.47;94596.31;4983764;28;20478;-84
2021/08/18 10:01:47;;;;;;;8.43;7.63;;;;;;;28.30;43.86;94596.88;5030985;28;20489;-84
2021/08/18 10:04:17;;;;;;;10.50;8.73;;;;;;;28.31;43.41;94590.41;5031017;28;20455;-84
2021/08/18 10:06:47;;;;;;;11.60;8.53;;;;;;;28.40;44.13;94592.72;5031351;28;20989;-84
2021/08/18 10:09:16;;;;;;;10.30;8.23;;;;;;;28.48;43.16;94581.50;5031209;28;20450;-84
2021/08/18 10:32:38;;;;;;;11.77;8.67;;;;;;;28.83;43.12;94568.47;5072950;28;20756;-85
2021/08/18 10:35:25;;;;;;;12.63;8.33;;;;;;;28.81;43.01;94559.78;5074705;28;20805;-84
2021/08/18 10:38:30;;;;;;;16.30;9.50;;;;;;;28.67;41.62;94555.84;5077049;28;20858;-85
2021/08/18 10:40:57;;;;;;;14.83;10.00;;;;;;;28.73;42.60;94552.13;5077869;28;20428;-85
2021/08/18 10:43:59;;;;;;;10.90;9.50;;;;;;;28.67;42.00;94547.75;5076588;28;20431;-84
2021/08/18 10:46:27;;;;;;;11.50;9.20;;;;;;;28.69;41.82;94549.13;5015490;28;21021;-85
2021/08/18 10:49:04;;;;;;;16.50;10.57;;;;;;;28.80;42.66;94546.53;4967247;28;20453;-84
2021/08/18 10:51:56;;;;;;;14.07;9.20;;;;;;;28.87;41.72;94548.00;5014757;28;20453;-85
2021/08/18 10:54:46;;;;;;;11.40;9.30;;;;;;;28.92;43.27;94533.78;5014625;28;20529;-84
2021/08/18 10:57:36;;;;;;;10.73;8.60;;;;;;;29.07;42.06;94536.63;5014479;28;20486;-85
2021/08/18 11:13:38;;;;;;;10.17;8.40;;;;;;;29.40;42.48;94524.81;5013060;28;20445;-85
2021/08/18 11:16:10;;;;;;;11.60;8.77;;;;;;;29.27;40.98;94525.22;5014314;28;20431;-84
2021/08/18 11:18:38;;;;;;;10.63;9.53;;;;;;;29.22;41.56;94523.28;5041100;28;20441;-84
2021/08/18 11:21:15;;;;;;;13.07;8.93;;;;;;;29.24;42.00;94525.75;5041473;28;20524;-84
2021/08/18 11:23:49;;;;;;;17.03;10.77;;;;;;;29.15;41.29;94519.13;5076222;28;20454;-85
2021/08/18 11:26:19;;;;;;;16.43;10.07;;;;;;;29.04;41.12;94522.81;5075952;28;20559;-84
2021/08/18 11:28:54;;;;;;;12.83;9.27;;;;;;;29.03;43.07;94513.06;5076661;28;20516;-85
2021/08/18 11:31:37;;;;;;;14.43;10.10;;;;;;;29.07;42.58;94515.00;5075793;28;20527;-84
2021/08/18 11:34:05;;;;;;;16.53;9.93;;;;;;;29.15;41.77;94514.56;5075607;28;20772;-85
2021/08/18 11:36:43;;;;;;;14.67;10.30;;;;;;;29.16;40.96;94516.19;5076022;28;20977;-85
2021/08/18 11:42:33;;;;;;;24.00;10.77;;;;;;;29.30;42.57;94503.09;5074431;28;20474;-85
2021/08/18 11:45:03;;;;;;;11.80;9.67;;;;;;;29.30;41.95;94492.28;5075336;28;20445;-85
2021/08/18 11:47:33;;;;;;;12.63;10.53;;;;;;;29.24;41.58;94499.53;5075732;28;20478;-85
2021/08/18 11:50:02;;;;;;;11.83;9.20;;;;;;;29.13;41.31;94486.16;5075397;28;20437;-84
2021/08/18 11:52:29;;;;;;;10.97;9.73;;;;;;;28.97;41.32;94488.72;5075699;28;20449;-85
2021/08/18 11:54:57;;;;;;;14.93;11.80;;;;;;;28.89;41.91;94482.91;5075946;28;20409;-84
2021/08/18 11:57:24;;;;;;;13.00;10.47;;;;;;;28.95;41.96;94480.03;5075310;28;20475;-85
2021/08/18 11:59:52;;;;;;;13.50;9.67;;;;;;;28.94;40.85;94475.72;5075295;28;21147;-85
2021/08/18 12:09:30;;;;;;;15.00;10.60;;;;;;;29.01;41.40;94462.00;5075098;28;20385;-85
2021/08/18 12:12:06;;;;;;;16.97;10.03;;;;;;;28.99;41.00;94462.25;4993779;28;21047;-84
2021/08/18 12:14:39;;;;;;;14.00;9.83;;;;;;;28.93;41.29;94462.47;4993737;28;20452;-85
2021/08/18 12:17:07;;;;;;;10.80;9.70;;;;;;;28.94;40.71;94454.09;4993654;28;20425;-84
2021/08/18 12:19:37;;;;;;;11.53;8.67;;;;;;;28.99;41.88;94448.75;4993429;28;20515;-85
2021/08/18 12:22:20;;;;;;;15.00;10.57;;;;;;;29.05;41.17;94456.91;4993522;28;20456;-85
2021/08/18 12:24:50;;;;;;;14.87;10.90;;;;;;;29.13;42.20;94448.31;4897934;29;20539;-85
2021/08/18 12:27:22;;;;;;;14.70;10.80;;;;;;;29.06;41.49;94439.63;4897846;29;20488;-85
2021/08/18 12:30:00;;;;;;;14.20;12.80;;;;;;;28.95;42.13;94447.63;4897713;29;20832;-85
2021/08/18 12:32:27;;;;;;;14.33;10.57;;;;;;;29.04;41.51;94444.47;4897581;29;20443;-85
2021/08/18 12:34:58;;;;;;;19.07;11.17;;;;;;;29.03;41.49;94448.22;4897616;29;20803;-85
2021/08/18 12:37:26;;;;;;;13.43;10.90;;;;;;;28.98;40.78;94443.59;4897471;29;20456;-84
2021/08/18 12:39:57;;;;;;;18.73;11.13;;;;;;;28.81;41.84;94445.53;4897354;29;20926;-84
2021/08/18 12:42:26;;;;;;;11.60;9.83;;;;;;;28.84;42.23;94437.75;4897597;29;21071;-85
2021/08/18 12:45:05;;;;;;;14.73;9.70;;;;;;;28.85;42.12;94430.47;4897369;29;20436;-85